sensor_id;sensor_type;location;lat;lon;timestamp;P1;durP1;ratioP1;P2;durP2;ratioP2
4903;SDS011;2467;48.142;11.616;2023-01-25T00:00:03;19.58;;;13.68;;
4903;SDS011;2467;48.142;11.616;2023-01-25T00:00:36;13.32;;;11.40;;
4903;SDS011;2467;48.142;11.616;2023-01-25T00:01:09;18.55;;;14.38;;
4903;SDS011;2467;48.142;11.616;2023-01-25T00:01:41;14.73;;;11.93;;
4903;SDS011;2467;48.142;11.616;2023-01-25T00:02:13;15.30;;;12.77;;
4903;SDS011;2467;48.142;11.616;2023-01-25T00:02:46;15.65;;;12.10;;
4903;SDS011;2467;48.142;11.616;2023-01-25T00:03:18;15.30;;;11.90;;
4903;SDS011;2467;48.142;11.616;2023-01-25T00:03:50;18.85;;;14.38;;
4903;SDS011;2467;48.142;11.616;2023-01-25T00:04:23;13.95;;;11.50;;
4903;SDS011;2467;48.142;11.616;2023-01-25T00:04:57;19.00;;;12.57;;
4903;SDS011;2467;48.142;11.616;2023-01-25T00:05:28;16.42;;;12.55;;
4903;SDS011;2467;48.142;11.616;2023-01-25T00:06:01;14.38;;;11.45;;
4903;SDS011;2467;48.142;11.616;2023-01-25T00:06:33;16.15;;;12.00;;
4903;SDS011;2467;48.142;11.616;2023-01-25T00:07:05;15.43;;;11.32;;
4903;SDS011;2467;48.142;11.616;2023-01-25T00:07:38;13.63;;;11.75;;
4903;SDS011;2467;48.142;11.616;2023-01-25T00:08:10;14.40;;;11.63;;
4903;SDS011;2467;48.142;11.616;2023-01-25T00:08:42;15.15;;;12.32;;
4903;SDS011;2467;48.142;11.616;2023-01-25T00:09:15;15.65;;;11.80;;
4903;SDS011;2467;48.142;11.616;2023-01-25T00:09:47;13.82;;;11.50;;
4903;SDS011;2467;48.142;11.616;2023-01-25T00:10:19;13.63;;;11.65;;
4903;SDS011;2467;48.142;11.616;2023-01-25T00:10:52;17.65;;;13.57;;
4903;SDS011;2467;48.142;11.616;2023-01-25T00:11:24;15.32;;;12.23;;
4903;SDS011;2467;48.142;11.616;2023-01-25T00:11:55;18.25;;;12.85;;
4903;SDS011;2467;48.142;11.616;2023-01-25T00:12:28;17.30;;;12.85;;
4903;SDS011;2467;48.142;11.616;2023-01-25T00:13:01;15.90;;;11.95;;
4903;SDS011;2467;48.142;11.616;2023-01-25T00:13:32;15.80;;;12.43;;
4903;SDS011;2467;48.142;11.616;2023-01-25T00:14:04;17.13;;;12.95;;
4903;SDS011;2467;48.142;11.616;2023-01-25T00:14:36;14.30;;;12.43;;
4903;SDS011;2467;48.142;11.616;2023-01-25T00:15:10;15.80;;;11.52;;
4903;SDS011;2467;48.142;11.616;2023-01-25T00:15:42;16.38;;;12.50;;
4903;SDS011;2467;48.142;11.616;2023-01-25T00:16:14;16.40;;;12.20;;
4903;SDS011;2467;48.142;11.616;2023-01-25T00:16:47;15.60;;;12.25;;
4903;SDS011;2467;48.142;11.616;2023-01-25T00:17:19;16.67;;;13.55;;
4903;SDS011;2467;48.142;11.616;2023-01-25T00:17:50;15.23;;;12.43;;
4903;SDS011;2467;48.142;11.616;2023-01-25T00:18:23;15.73;;;13.35;;
4903;SDS011;2467;48.142;11.616;2023-01-25T00:18:55;19.83;;;13.43;;
4903;SDS011;2467;48.142;11.616;2023-01-25T00:19:27;16.02;;;13.23;;
4903;SDS011;2467;48.142;11.616;2023-01-25T00:20:00;15.38;;;12.38;;
4903;SDS011;2467;48.142;11.616;2023-01-25T00:20:33;16.75;;;12.27;;
4903;SDS011;2467;48.142;11.616;2023-01-25T00:21:11;16.45;;;12.60;;
4903;SDS011;2467;48.142;11.616;2023-01-25T00:21:44;17.58;;;11.85;;
4903;SDS011;2467;48.142;11.616;2023-01-25T00:22:17;15.50;;;12.63;;
4903;SDS011;2467;48.142;11.616;2023-01-25T00:22:49;19.40;;;13.07;;
4903;SDS011;2467;48.142;11.616;2023-01-25T00:23:20;16.23;;;12.88;;
4903;SDS011;2467;48.142;11.616;2023-01-25T00:23:53;16.27;;;13.20;;
4903;SDS011;2467;48.142;11.616;2023-01-25T00:24:25;17.75;;;12.82;;
4903;SDS011;2467;48.142;11.616;2023-01-25T00:24:57;19.92;;;13.15;;
4903;SDS011;2467;48.142;11.616;2023-01-25T00:25:30;18.75;;;13.02;;
4903;SDS011;2467;48.142;11.616;2023-01-25T00:26:02;15.25;;;11.82;;
4903;SDS011;2467;48.142;11.616;2023-01-25T00:26:34;17.27;;;12.48;;
4903;SDS011;2467;48.142;11.616;2023-01-25T00:27:06;20.35;;;13.75;;
4903;SDS011;2467;48.142;11.616;2023-01-25T00:27:39;16.42;;;13.88;;
4903;SDS011;2467;48.142;11.616;2023-01-25T00:28:11;20.77;;;12.73;;
4903;SDS011;2467;48.142;11.616;2023-01-25T00:28:43;18.10;;;12.98;;
4903;SDS011;2467;48.142;11.616;2023-01-25T00:29:20;18.30;;;12.55;;
4903;SDS011;2467;48.142;11.616;2023-01-25T00:29:52;19.10;;;13.40;;
4903;SDS011;2467;48.142;11.616;2023-01-25T00:30:24;16.48;;;12.68;;
4903;SDS011;2467;48.142;11.616;2023-01-25T00:30:57;18.02;;;13.30;;
4903;SDS011;2467;48.142;11.616;2023-01-25T00:31:36;17.33;;;13.70;;
4903;SDS011;2467;48.142;11.616;2023-01-25T00:32:32;16.42;;;12.77;;
4903;SDS011;2467;48.142;11.616;2023-01-25T00:33:31;19.52;;;13.15;;
4903;SDS011;2467;48.142;11.616;2023-01-25T00:34:06;16.08;;;12.40;;
4903;SDS011;2467;48.142;11.616;2023-01-25T00:35:11;16.08;;;11.88;;
4903;SDS011;2467;48.142;11.616;2023-01-25T00:35:44;14.80;;;11.30;;
4903;SDS011;2467;48.142;11.616;2023-01-25T00:36:26;17.95;;;13.73;;
4903;SDS011;2467;48.142;11.616;2023-01-25T00:37:10;17.85;;;12.20;;
4903;SDS011;2467;48.142;11.616;2023-01-25T00:37:52;17.70;;;11.75;;
4903;SDS011;2467;48.142;11.616;2023-01-25T00:38:26;16.73;;;12.52;;
4903;SDS011;2467;48.142;11.616;2023-01-25T00:39:00;15.10;;;11.90;;
4903;SDS011;2467;48.142;11.616;2023-01-25T00:39:33;15.55;;;11.07;;
4903;SDS011;2467;48.142;11.616;2023-01-25T00:40:05;16.90;;;12.30;;
4903;SDS011;2467;48.142;11.616;2023-01-25T00:40:39;19.02;;;13.32;;
4903;SDS011;2467;48.142;11.616;2023-01-25T00:41:12;17.83;;;13.68;;
4903;SDS011;2467;48.142;11.616;2023-01-25T00:41:44;16.83;;;12.35;;
4903;SDS011;2467;48.142;11.616;2023-01-25T00:42:16;16.95;;;12.55;;
4903;SDS011;2467;48.142;11.616;2023-01-25T00:42:49;15.63;;;13.30;;
4903;SDS011;2467;48.142;11.616;2023-01-25T00:43:22;13.90;;;12.15;;
4903;SDS011;2467;48.142;11.616;2023-01-25T00:43:54;15.02;;;11.82;;
4903;SDS011;2467;48.142;11.616;2023-01-25T00:44:27;18.27;;;12.30;;
4903;SDS011;2467;48.142;11.616;2023-01-25T00:44:59;16.42;;;13.00;;
4903;SDS011;2467;48.142;11.616;2023-01-25T00:45:31;17.55;;;12.40;;
4903;SDS011;2467;48.142;11.616;2023-01-25T00:46:03;16.70;;;12.40;;
4903;SDS011;2467;48.142;11.616;2023-01-25T00:46:35;18.35;;;13.40;;
4903;SDS011;2467;48.142;11.616;2023-01-25T00:47:08;19.65;;;14.32;;
4903;SDS011;2467;48.142;11.616;2023-01-25T00:47:41;15.50;;;13.48;;
4903;SDS011;2467;48.142;11.616;2023-01-25T00:48:13;16.77;;;13.35;;
4903;SDS011;2467;48.142;11.616;2023-01-25T00:48:46;18.63;;;13.30;;
4903;SDS011;2467;48.142;11.616;2023-01-25T00:49:19;16.98;;;13.23;;
4903;SDS011;2467;48.142;11.616;2023-01-25T00:49:52;18.23;;;13.07;;
4903;SDS011;2467;48.142;11.616;2023-01-25T00:50:26;18.02;;;13.80;;
4903;SDS011;2467;48.142;11.616;2023-01-25T00:50:59;16.67;;;14.25;;
4903;SDS011;2467;48.142;11.616;2023-01-25T00:51:31;18.42;;;14.10;;
4903;SDS011;2467;48.142;11.616;2023-01-25T00:52:05;18.42;;;14.25;;
4903;SDS011;2467;48.142;11.616;2023-01-25T00:52:38;17.45;;;12.85;;
4903;SDS011;2467;48.142;11.616;2023-01-25T00:53:10;19.65;;;13.77;;
4903;SDS011;2467;48.142;11.616;2023-01-25T00:53:43;19.00;;;12.85;;
4903;SDS011;2467;48.142;11.616;2023-01-25T00:54:15;16.85;;;12.75;;
4903;SDS011;2467;48.142;11.616;2023-01-25T00:54:47;19.55;;;14.32;;
4903;SDS011;2467;48.142;11.616;2023-01-25T00:55:19;21.65;;;14.65;;
4903;SDS011;2467;48.142;11.616;2023-01-25T00:55:52;25.15;;;16.55;;
4903;SDS011;2467;48.142;11.616;2023-01-25T00:56:24;21.38;;;14.20;;
4903;SDS011;2467;48.142;11.616;2023-01-25T00:56:56;19.35;;;15.27;;
4903;SDS011;2467;48.142;11.616;2023-01-25T00:57:28;20.13;;;15.70;;
4903;SDS011;2467;48.142;11.616;2023-01-25T00:58:00;21.02;;;15.55;;
4903;SDS011;2467;48.142;11.616;2023-01-25T00:58:32;22.50;;;15.38;;
4903;SDS011;2467;48.142;11.616;2023-01-25T00:59:05;24.52;;;15.35;;
4903;SDS011;2467;48.142;11.616;2023-01-25T00:59:37;19.98;;;14.65;;
4903;SDS011;2467;48.142;11.616;2023-01-25T01:00:14;17.70;;;13.18;;
4903;SDS011;2467;48.142;11.616;2023-01-25T01:00:46;19.85;;;14.95;;
4903;SDS011;2467;48.142;11.616;2023-01-25T01:01:18;20.63;;;13.82;;
4903;SDS011;2467;48.142;11.616;2023-01-25T01:01:52;19.23;;;14.30;;
4903;SDS011;2467;48.142;11.616;2023-01-25T01:02:24;20.13;;;14.85;;
4903;SDS011;2467;48.142;11.616;2023-01-25T01:02:56;20.92;;;16.05;;
4903;SDS011;2467;48.142;11.616;2023-01-25T01:03:28;18.55;;;13.57;;
4903;SDS011;2467;48.142;11.616;2023-01-25T01:04:00;21.73;;;16.10;;
4903;SDS011;2467;48.142;11.616;2023-01-25T01:04:35;15.30;;;13.30;;
4903;SDS011;2467;48.142;11.616;2023-01-25T01:05:08;19.77;;;14.10;;
4903;SDS011;2467;48.142;11.616;2023-01-25T01:05:42;18.67;;;14.98;;
4903;SDS011;2467;48.142;11.616;2023-01-25T01:06:14;20.58;;;15.27;;
4903;SDS011;2467;48.142;11.616;2023-01-25T01:06:46;18.42;;;14.38;;
4903;SDS011;2467;48.142;11.616;2023-01-25T01:07:18;16.67;;;12.90;;
4903;SDS011;2467;48.142;11.616;2023-01-25T01:07:51;22.85;;;15.07;;
4903;SDS011;2467;48.142;11.616;2023-01-25T01:08:26;18.38;;;14.30;;
4903;SDS011;2467;48.142;11.616;2023-01-25T01:08:58;17.42;;;14.45;;
4903;SDS011;2467;48.142;11.616;2023-01-25T01:09:29;20.02;;;15.00;;
4903;SDS011;2467;48.142;11.616;2023-01-25T01:10:03;19.25;;;13.57;;
4903;SDS011;2467;48.142;11.616;2023-01-25T01:10:36;20.13;;;15.65;;
4903;SDS011;2467;48.142;11.616;2023-01-25T01:11:09;18.42;;;14.32;;
4903;SDS011;2467;48.142;11.616;2023-01-25T01:11:43;20.95;;;15.23;;
4903;SDS011;2467;48.142;11.616;2023-01-25T01:12:15;20.40;;;14.18;;
4903;SDS011;2467;48.142;11.616;2023-01-25T01:12:47;19.77;;;14.85;;
4903;SDS011;2467;48.142;11.616;2023-01-25T01:13:20;22.20;;;14.52;;
4903;SDS011;2467;48.142;11.616;2023-01-25T01:13:52;19.70;;;14.77;;
4903;SDS011;2467;48.142;11.616;2023-01-25T01:14:24;22.52;;;15.73;;
4903;SDS011;2467;48.142;11.616;2023-01-25T01:14:56;21.33;;;14.70;;
4903;SDS011;2467;48.142;11.616;2023-01-25T01:15:29;17.63;;;13.82;;
4903;SDS011;2467;48.142;11.616;2023-01-25T01:16:02;19.10;;;15.70;;
4903;SDS011;2467;48.142;11.616;2023-01-25T01:16:38;20.85;;;14.77;;
4903;SDS011;2467;48.142;11.616;2023-01-25T01:17:10;18.50;;;14.05;;
4903;SDS011;2467;48.142;11.616;2023-01-25T01:17:43;23.15;;;16.50;;
4903;SDS011;2467;48.142;11.616;2023-01-25T01:18:15;20.10;;;15.25;;
4903;SDS011;2467;48.142;11.616;2023-01-25T01:18:47;18.63;;;15.32;;
4903;SDS011;2467;48.142;11.616;2023-01-25T01:19:19;17.55;;;13.82;;
4903;SDS011;2467;48.142;11.616;2023-01-25T01:19:52;19.83;;;15.93;;
4903;SDS011;2467;48.142;11.616;2023-01-25T01:20:23;20.52;;;15.95;;
4903;SDS011;2467;48.142;11.616;2023-01-25T01:20:56;20.15;;;15.40;;
4903;SDS011;2467;48.142;11.616;2023-01-25T01:21:29;20.27;;;15.38;;
4903;SDS011;2467;48.142;11.616;2023-01-25T01:22:01;20.10;;;16.05;;
4903;SDS011;2467;48.142;11.616;2023-01-25T01:22:33;19.73;;;15.13;;
4903;SDS011;2467;48.142;11.616;2023-01-25T01:23:06;21.08;;;13.90;;
4903;SDS011;2467;48.142;11.616;2023-01-25T01:23:38;19.40;;;13.85;;
4903;SDS011;2467;48.142;11.616;2023-01-25T01:24:10;19.15;;;14.13;;
4903;SDS011;2467;48.142;11.616;2023-01-25T01:24:43;22.65;;;15.57;;
4903;SDS011;2467;48.142;11.616;2023-01-25T01:25:15;18.63;;;14.95;;
4903;SDS011;2467;48.142;11.616;2023-01-25T01:25:47;15.80;;;13.45;;
4903;SDS011;2467;48.142;11.616;2023-01-25T01:26:20;17.55;;;13.93;;
4903;SDS011;2467;48.142;11.616;2023-01-25T01:26:52;20.58;;;14.50;;
4903;SDS011;2467;48.142;11.616;2023-01-25T01:27:24;20.33;;;15.18;;
4903;SDS011;2467;48.142;11.616;2023-01-25T01:27:57;18.38;;;13.23;;
4903;SDS011;2467;48.142;11.616;2023-01-25T01:28:29;22.10;;;14.27;;
4903;SDS011;2467;48.142;11.616;2023-01-25T01:29:01;19.08;;;13.45;;
4903;SDS011;2467;48.142;11.616;2023-01-25T01:29:33;17.48;;;13.68;;
4903;SDS011;2467;48.142;11.616;2023-01-25T01:30:06;19.38;;;14.32;;
4903;SDS011;2467;48.142;11.616;2023-01-25T01:30:39;18.85;;;14.82;;
4903;SDS011;2467;48.142;11.616;2023-01-25T01:31:12;18.08;;;13.40;;
4903;SDS011;2467;48.142;11.616;2023-01-25T01:31:50;18.23;;;13.82;;
4903;SDS011;2467;48.142;11.616;2023-01-25T01:32:22;16.88;;;14.32;;
4903;SDS011;2467;48.142;11.616;2023-01-25T01:32:55;21.65;;;15.35;;
4903;SDS011;2467;48.142;11.616;2023-01-25T01:33:27;21.33;;;14.13;;
4903;SDS011;2467;48.142;11.616;2023-01-25T01:33:59;16.98;;;14.00;;
4903;SDS011;2467;48.142;11.616;2023-01-25T01:34:32;19.65;;;13.88;;
4903;SDS011;2467;48.142;11.616;2023-01-25T01:35:05;21.58;;;14.70;;
4903;SDS011;2467;48.142;11.616;2023-01-25T01:35:38;18.98;;;13.98;;
4903;SDS011;2467;48.142;11.616;2023-01-25T01:36:13;17.52;;;13.82;;
4903;SDS011;2467;48.142;11.616;2023-01-25T01:36:46;18.80;;;14.00;;
4903;SDS011;2467;48.142;11.616;2023-01-25T01:37:19;18.40;;;14.95;;
4903;SDS011;2467;48.142;11.616;2023-01-25T01:37:51;17.17;;;13.27;;
4903;SDS011;2467;48.142;11.616;2023-01-25T01:38:23;16.60;;;13.40;;
4903;SDS011;2467;48.142;11.616;2023-01-25T01:38:56;17.52;;;13.70;;
4903;SDS011;2467;48.142;11.616;2023-01-25T01:39:29;18.80;;;13.98;;
4903;SDS011;2467;48.142;11.616;2023-01-25T01:40:01;17.88;;;13.55;;
4903;SDS011;2467;48.142;11.616;2023-01-25T01:40:33;17.58;;;13.98;;
4903;SDS011;2467;48.142;11.616;2023-01-25T01:41:06;17.90;;;14.38;;
4903;SDS011;2467;48.142;11.616;2023-01-25T01:41:38;17.45;;;13.50;;
4903;SDS011;2467;48.142;11.616;2023-01-25T01:42:10;16.50;;;13.48;;
4903;SDS011;2467;48.142;11.616;2023-01-25T01:42:56;18.42;;;13.55;;
4903;SDS011;2467;48.142;11.616;2023-01-25T01:43:29;16.48;;;13.65;;
4903;SDS011;2467;48.142;11.616;2023-01-25T01:44:01;16.58;;;13.60;;
4903;SDS011;2467;48.142;11.616;2023-01-25T01:44:43;15.27;;;12.52;;
4903;SDS011;2467;48.142;11.616;2023-01-25T01:46:20;18.92;;;12.25;;
4903;SDS011;2467;48.142;11.616;2023-01-25T01:46:59;18.20;;;13.05;;
4903;SDS011;2467;48.142;11.616;2023-01-25T01:47:33;17.45;;;12.00;;
4903;SDS011;2467;48.142;11.616;2023-01-25T01:48:12;18.45;;;13.32;;
4903;SDS011;2467;48.142;11.616;2023-01-25T01:48:51;17.45;;;13.90;;
4903;SDS011;2467;48.142;11.616;2023-01-25T01:49:26;18.45;;;12.25;;
4903;SDS011;2467;48.142;11.616;2023-01-25T01:50:02;17.73;;;13.00;;
4903;SDS011;2467;48.142;11.616;2023-01-25T01:50:36;20.65;;;14.02;;
4903;SDS011;2467;48.142;11.616;2023-01-25T01:51:10;19.15;;;13.60;;
4903;SDS011;2467;48.142;11.616;2023-01-25T01:51:51;19.08;;;12.85;;
4903;SDS011;2467;48.142;11.616;2023-01-25T01:52:27;18.90;;;13.05;;
4903;SDS011;2467;48.142;11.616;2023-01-25T01:53:03;17.50;;;12.82;;
4903;SDS011;2467;48.142;11.616;2023-01-25T01:53:35;18.23;;;14.60;;
4903;SDS011;2467;48.142;11.616;2023-01-25T01:54:09;18.75;;;12.60;;
4903;SDS011;2467;48.142;11.616;2023-01-25T01:54:46;18.25;;;13.43;;
4903;SDS011;2467;48.142;11.616;2023-01-25T01:55:23;21.77;;;14.20;;
4903;SDS011;2467;48.142;11.616;2023-01-25T01:55:56;15.70;;;12.50;;
4903;SDS011;2467;48.142;11.616;2023-01-25T01:56:34;18.80;;;13.45;;
4903;SDS011;2467;48.142;11.616;2023-01-25T01:57:10;18.58;;;13.63;;
4903;SDS011;2467;48.142;11.616;2023-01-25T01:57:45;18.02;;;14.02;;
4903;SDS011;2467;48.142;11.616;2023-01-25T01:58:22;18.48;;;14.35;;
4903;SDS011;2467;48.142;11.616;2023-01-25T01:58:54;16.85;;;14.45;;
4903;SDS011;2467;48.142;11.616;2023-01-25T01:59:30;17.52;;;13.60;;
4903;SDS011;2467;48.142;11.616;2023-01-25T02:00:07;16.58;;;13.30;;
4903;SDS011;2467;48.142;11.616;2023-01-25T02:00:43;18.70;;;13.90;;
4903;SDS011;2467;48.142;11.616;2023-01-25T02:01:15;18.50;;;14.02;;
4903;SDS011;2467;48.142;11.616;2023-01-25T02:01:50;19.38;;;14.60;;
4903;SDS011;2467;48.142;11.616;2023-01-25T02:02:23;17.92;;;13.95;;
4903;SDS011;2467;48.142;11.616;2023-01-25T02:02:56;19.25;;;13.02;;
4903;SDS011;2467;48.142;11.616;2023-01-25T02:03:29;18.08;;;14.57;;
4903;SDS011;2467;48.142;11.616;2023-01-25T02:04:03;20.60;;;14.30;;
4903;SDS011;2467;48.142;11.616;2023-01-25T02:04:37;16.17;;;12.57;;
4903;SDS011;2467;48.142;11.616;2023-01-25T02:05:11;18.38;;;13.82;;
4903;SDS011;2467;48.142;11.616;2023-01-25T02:05:50;15.90;;;12.90;;
4903;SDS011;2467;48.142;11.616;2023-01-25T02:06:30;19.00;;;13.00;;
4903;SDS011;2467;48.142;11.616;2023-01-25T02:07:07;20.58;;;12.10;;
4903;SDS011;2467;48.142;11.616;2023-01-25T02:07:44;17.40;;;13.07;;
4903;SDS011;2467;48.142;11.616;2023-01-25T02:08:19;20.70;;;13.95;;
4903;SDS011;2467;48.142;11.616;2023-01-25T02:08:52;18.35;;;14.23;;
4903;SDS011;2467;48.142;11.616;2023-01-25T02:09:25;17.40;;;13.27;;
4903;SDS011;2467;48.142;11.616;2023-01-25T02:09:59;18.95;;;13.15;;
4903;SDS011;2467;48.142;11.616;2023-01-25T02:10:32;20.77;;;13.48;;
4903;SDS011;2467;48.142;11.616;2023-01-25T02:11:06;17.98;;;14.35;;
4903;SDS011;2467;48.142;11.616;2023-01-25T02:11:39;17.92;;;13.70;;
4903;SDS011;2467;48.142;11.616;2023-01-25T02:12:11;15.80;;;12.82;;
4903;SDS011;2467;48.142;11.616;2023-01-25T02:12:45;18.85;;;14.52;;
4903;SDS011;2467;48.142;11.616;2023-01-25T02:13:18;18.73;;;13.50;;
4903;SDS011;2467;48.142;11.616;2023-01-25T02:13:50;17.98;;;13.82;;
4903;SDS011;2467;48.142;11.616;2023-01-25T02:14:24;18.63;;;13.32;;
4903;SDS011;2467;48.142;11.616;2023-01-25T02:14:59;18.80;;;13.23;;
4903;SDS011;2467;48.142;11.616;2023-01-25T02:15:32;18.67;;;13.43;;
4903;SDS011;2467;48.142;11.616;2023-01-25T02:16:11;17.60;;;13.38;;
4903;SDS011;2467;48.142;11.616;2023-01-25T02:16:47;20.20;;;13.32;;
4903;SDS011;2467;48.142;11.616;2023-01-25T02:17:20;17.02;;;13.35;;
4903;SDS011;2467;48.142;11.616;2023-01-25T02:17:55;17.23;;;13.43;;
4903;SDS011;2467;48.142;11.616;2023-01-25T02:18:28;20.10;;;13.70;;
4903;SDS011;2467;48.142;11.616;2023-01-25T02:19:01;16.65;;;12.68;;
4903;SDS011;2467;48.142;11.616;2023-01-25T02:19:48;17.90;;;13.18;;
4903;SDS011;2467;48.142;11.616;2023-01-25T02:20:28;19.08;;;13.35;;
4903;SDS011;2467;48.142;11.616;2023-01-25T02:21:05;18.65;;;14.10;;
4903;SDS011;2467;48.142;11.616;2023-01-25T02:21:39;15.77;;;12.18;;
4903;SDS011;2467;48.142;11.616;2023-01-25T02:22:17;17.30;;;12.50;;
4903;SDS011;2467;48.142;11.616;2023-01-25T02:23:02;15.93;;;12.98;;
4903;SDS011;2467;48.142;11.616;2023-01-25T02:23:42;16.40;;;11.80;;
4903;SDS011;2467;48.142;11.616;2023-01-25T02:24:22;17.60;;;13.40;;
4903;SDS011;2467;48.142;11.616;2023-01-25T02:25:02;18.75;;;13.50;;
4903;SDS011;2467;48.142;11.616;2023-01-25T02:25:36;19.63;;;14.18;;
4903;SDS011;2467;48.142;11.616;2023-01-25T02:26:11;17.02;;;12.63;;
4903;SDS011;2467;48.142;11.616;2023-01-25T02:26:44;19.73;;;13.40;;
4903;SDS011;2467;48.142;11.616;2023-01-25T02:27:16;17.25;;;13.88;;
4903;SDS011;2467;48.142;11.616;2023-01-25T02:27:51;16.73;;;13.02;;
4903;SDS011;2467;48.142;11.616;2023-01-25T02:28:26;15.52;;;12.45;;
4903;SDS011;2467;48.142;11.616;2023-01-25T02:29:03;19.17;;;14.25;;
4903;SDS011;2467;48.142;11.616;2023-01-25T02:29:37;17.58;;;13.50;;
4903;SDS011;2467;48.142;11.616;2023-01-25T02:30:10;17.60;;;12.73;;
4903;SDS011;2467;48.142;11.616;2023-01-25T02:30:42;20.27;;;14.95;;
4903;SDS011;2467;48.142;11.616;2023-01-25T02:31:15;18.20;;;14.57;;
4903;SDS011;2467;48.142;11.616;2023-01-25T02:31:47;19.13;;;15.15;;
4903;SDS011;2467;48.142;11.616;2023-01-25T02:32:22;18.65;;;13.00;;
4903;SDS011;2467;48.142;11.616;2023-01-25T02:32:55;17.02;;;14.02;;
4903;SDS011;2467;48.142;11.616;2023-01-25T02:33:27;18.05;;;12.95;;
4903;SDS011;2467;48.142;11.616;2023-01-25T02:33:59;17.02;;;12.90;;
4903;SDS011;2467;48.142;11.616;2023-01-25T02:34:32;18.13;;;13.27;;
4903;SDS011;2467;48.142;11.616;2023-01-25T02:35:04;21.10;;;14.13;;
4903;SDS011;2467;48.142;11.616;2023-01-25T02:35:39;16.77;;;12.32;;
4903;SDS011;2467;48.142;11.616;2023-01-25T02:36:18;16.55;;;13.23;;
4903;SDS011;2467;48.142;11.616;2023-01-25T02:36:52;16.13;;;12.65;;
4903;SDS011;2467;48.142;11.616;2023-01-25T02:37:24;19.33;;;13.32;;
4903;SDS011;2467;48.142;11.616;2023-01-25T02:37:57;17.95;;;13.32;;
4903;SDS011;2467;48.142;11.616;2023-01-25T02:38:30;16.48;;;11.93;;
4903;SDS011;2467;48.142;11.616;2023-01-25T02:39:05;16.67;;;13.18;;
4903;SDS011;2467;48.142;11.616;2023-01-25T02:39:41;15.75;;;11.95;;
4903;SDS011;2467;48.142;11.616;2023-01-25T02:40:15;14.05;;;10.65;;
4903;SDS011;2467;48.142;11.616;2023-01-25T02:40:48;14.10;;;11.43;;
4903;SDS011;2467;48.142;11.616;2023-01-25T02:41:24;17.17;;;12.60;;
4903;SDS011;2467;48.142;11.616;2023-01-25T02:41:58;17.17;;;13.25;;
4903;SDS011;2467;48.142;11.616;2023-01-25T02:42:31;19.33;;;12.60;;
4903;SDS011;2467;48.142;11.616;2023-01-25T02:43:05;16.52;;;12.35;;
4903;SDS011;2467;48.142;11.616;2023-01-25T02:43:37;15.30;;;11.88;;
4903;SDS011;2467;48.142;11.616;2023-01-25T02:44:10;13.43;;;10.77;;
4903;SDS011;2467;48.142;11.616;2023-01-25T02:44:46;18.65;;;11.45;;
4903;SDS011;2467;48.142;11.616;2023-01-25T02:45:19;15.52;;;12.88;;
4903;SDS011;2467;48.142;11.616;2023-01-25T02:45:59;16.75;;;12.48;;
4903;SDS011;2467;48.142;11.616;2023-01-25T02:46:41;17.33;;;12.50;;
4903;SDS011;2467;48.142;11.616;2023-01-25T02:47:15;14.68;;;10.77;;
4903;SDS011;2467;48.142;11.616;2023-01-25T02:47:46;14.07;;;10.25;;
4903;SDS011;2467;48.142;11.616;2023-01-25T02:48:19;15.27;;;11.65;;
4903;SDS011;2467;48.142;11.616;2023-01-25T02:48:51;13.60;;;10.50;;
4903;SDS011;2467;48.142;11.616;2023-01-25T02:49:23;13.77;;;10.38;;
4903;SDS011;2467;48.142;11.616;2023-01-25T02:49:56;14.30;;;11.25;;
4903;SDS011;2467;48.142;11.616;2023-01-25T02:50:28;14.55;;;11.70;;
4903;SDS011;2467;48.142;11.616;2023-01-25T02:51:00;13.98;;;11.38;;
4903;SDS011;2467;48.142;11.616;2023-01-25T02:51:34;15.77;;;11.57;;
4903;SDS011;2467;48.142;11.616;2023-01-25T02:52:06;13.82;;;11.02;;
4903;SDS011;2467;48.142;11.616;2023-01-25T02:52:39;12.88;;;9.68;;
4903;SDS011;2467;48.142;11.616;2023-01-25T02:53:11;13.63;;;11.98;;
4903;SDS011;2467;48.142;11.616;2023-01-25T02:53:43;14.90;;;11.90;;
4903;SDS011;2467;48.142;11.616;2023-01-25T02:54:15;14.00;;;11.23;;
4903;SDS011;2467;48.142;11.616;2023-01-25T02:54:50;14.45;;;11.63;;
4903;SDS011;2467;48.142;11.616;2023-01-25T02:55:24;14.50;;;11.75;;
4903;SDS011;2467;48.142;11.616;2023-01-25T02:55:55;17.90;;;13.02;;
4903;SDS011;2467;48.142;11.616;2023-01-25T02:56:27;15.20;;;10.80;;
4903;SDS011;2467;48.142;11.616;2023-01-25T02:57:01;13.45;;;11.40;;
4903;SDS011;2467;48.142;11.616;2023-01-25T02:57:32;14.73;;;11.85;;
4903;SDS011;2467;48.142;11.616;2023-01-25T02:58:04;14.95;;;12.23;;
4903;SDS011;2467;48.142;11.616;2023-01-25T02:58:37;13.35;;;11.38;;
4903;SDS011;2467;48.142;11.616;2023-01-25T02:59:09;15.07;;;11.80;;
4903;SDS011;2467;48.142;11.616;2023-01-25T02:59:43;14.02;;;11.48;;
4903;SDS011;2467;48.142;11.616;2023-01-25T03:00:16;16.35;;;12.43;;
4903;SDS011;2467;48.142;11.616;2023-01-25T03:00:48;17.75;;;11.10;;
4903;SDS011;2467;48.142;11.616;2023-01-25T03:01:20;15.32;;;11.27;;
4903;SDS011;2467;48.142;11.616;2023-01-25T03:01:53;18.60;;;12.13;;
4903;SDS011;2467;48.142;11.616;2023-01-25T03:02:25;15.30;;;10.93;;
4903;SDS011;2467;48.142;11.616;2023-01-25T03:02:57;22.48;;;19.33;;
4903;SDS011;2467;48.142;11.616;2023-01-25T03:03:30;18.88;;;14.95;;
4903;SDS011;2467;48.142;11.616;2023-01-25T03:04:02;17.17;;;14.25;;
4903;SDS011;2467;48.142;11.616;2023-01-25T03:04:34;20.75;;;14.45;;
4903;SDS011;2467;48.142;11.616;2023-01-25T03:05:07;17.67;;;14.60;;
4903;SDS011;2467;48.142;11.616;2023-01-25T03:05:39;15.65;;;12.88;;
4903;SDS011;2467;48.142;11.616;2023-01-25T03:06:11;18.15;;;13.75;;
4903;SDS011;2467;48.142;11.616;2023-01-25T03:06:44;14.50;;;11.20;;
4903;SDS011;2467;48.142;11.616;2023-01-25T03:07:16;15.13;;;13.52;;
4903;SDS011;2467;48.142;11.616;2023-01-25T03:07:48;16.52;;;12.02;;
4903;SDS011;2467;48.142;11.616;2023-01-25T03:08:21;17.63;;;12.30;;
4903;SDS011;2467;48.142;11.616;2023-01-25T03:08:53;16.30;;;11.95;;
4903;SDS011;2467;48.142;11.616;2023-01-25T03:09:24;16.27;;;13.00;;
4903;SDS011;2467;48.142;11.616;2023-01-25T03:09:57;15.77;;;12.77;;
4903;SDS011;2467;48.142;11.616;2023-01-25T03:10:30;15.93;;;11.63;;
4903;SDS011;2467;48.142;11.616;2023-01-25T03:11:03;14.93;;;11.48;;
4903;SDS011;2467;48.142;11.616;2023-01-25T03:11:37;15.30;;;11.98;;
4903;SDS011;2467;48.142;11.616;2023-01-25T03:12:09;14.48;;;10.85;;
4903;SDS011;2467;48.142;11.616;2023-01-25T03:12:41;18.02;;;12.88;;
4903;SDS011;2467;48.142;11.616;2023-01-25T03:13:13;14.90;;;11.05;;
4903;SDS011;2467;48.142;11.616;2023-01-25T03:13:45;16.17;;;12.30;;
4903;SDS011;2467;48.142;11.616;2023-01-25T03:14:17;17.33;;;13.50;;
4903;SDS011;2467;48.142;11.616;2023-01-25T03:14:49;18.17;;;12.80;;
4903;SDS011;2467;48.142;11.616;2023-01-25T03:15:22;15.85;;;11.48;;
4903;SDS011;2467;48.142;11.616;2023-01-25T03:15:57;21.35;;;13.43;;
4903;SDS011;2467;48.142;11.616;2023-01-25T03:16:30;18.83;;;13.05;;
4903;SDS011;2467;48.142;11.616;2023-01-25T03:17:04;18.98;;;13.88;;
4903;SDS011;2467;48.142;11.616;2023-01-25T03:17:36;16.30;;;12.25;;
4903;SDS011;2467;48.142;11.616;2023-01-25T03:18:07;15.60;;;12.38;;
4903;SDS011;2467;48.142;11.616;2023-01-25T03:18:40;19.83;;;14.15;;
4903;SDS011;2467;48.142;11.616;2023-01-25T03:19:13;17.48;;;12.52;;
4903;SDS011;2467;48.142;11.616;2023-01-25T03:19:45;20.70;;;16.02;;
4903;SDS011;2467;48.142;11.616;2023-01-25T03:20:17;32.58;;;24.42;;
4903;SDS011;2467;48.142;11.616;2023-01-25T03:20:49;26.85;;;19.25;;